Time;durP1;ratioP1;P1;durP2;ratioP2;P2;SDS_P1;SDS_P2;PMS_P1;PMS_P2;Temp;Humidity;BMP_temperature;BMP_pressure;BME280_temperature;BME280_humidity;BME280_pressure;Samples;Min_cycle;Max_cycle;Signal;HPM_P1;HPM_P2
2023/07/01 00:02:17;;;;;;;0.40;0.20;;;;;;;13.62;84.00;99758.00;5051887;28;20462;-52
2023/07/01 00:04:44;;;;;;;0.40;0.20;;;;;;;13.75;84.06;99763.59;5051618;28;20463;-52
2023/07/01 00:07:10;;;;;;;0.40;0.20;;;;;;;13.67;83.94;99749.75;5051814;28;20467;-52
2023/07/01 00:09:37;;;;;;;0.40;0.20;;;;;;;13.60;84.13;99746.53;5051414;28;20552;-52
2023/07/01 00:12:04;;;;;;;0.40;0.20;;;;;;;13.41;85.21;99750.16;5051560;28;20512;-52
2023/07/01 00:14:30;;;;;;;0.40;0.20;;;;;;;13.57;86.32;99741.34;5051394;28;20470;-52
2023/07/01 00:16:58;;;;;;;0.40;0.20;;;;;;;13.55;85.46;99737.88;5051792;28;20477;-52
2023/07/01 00:19:24;;;;;;;0.40;0.20;;;;;;;13.27;85.60;99735.69;5051297;28;21028;-52
2023/07/01 00:21:51;;;;;;;0.40;0.20;;;;;;;13.11;86.92;99742.69;5047590;28;20501;-52
2023/07/01 00:24:17;;;;;;;0.40;0.20;;;;;;;13.33;86.33;99732.75;5048279;28;20494;-52
2023/07/01 00:26:44;;;;;;;0.40;0.20;;;;;;;13.17;86.59;99731.72;5052907;28;20478;-53
2023/07/01 00:29:10;;;;;;;0.40;0.20;;;;;;;13.26;85.98;99730.44;5055123;28;20483;-52
2023/07/01 00:31:37;;;;;;;0.40;0.20;;;;;;;13.10;87.06;99729.41;5054985;28;20881;-52
2023/07/01 00:34:03;;;;;;;0.40;0.20;;;;;;;13.17;87.08;99723.72;5055131;28;20466;-52
2023/07/01 00:36:30;;;;;;;0.40;0.20;;;;;;;13.06;86.94;99720.69;5055040;28;20532;-52
2023/07/01 00:38:56;;;;;;;0.40;0.20;;;;;;;13.06;87.36;99718.03;5054851;28;20490;-52
2023/07/01 00:41:23;;;;;;;0.83;0.83;;;;;;;13.12;87.52;99712.38;5054963;28;20853;-52
2023/07/01 00:43:49;;;;;;;0.40;0.20;;;;;;;13.24;86.90;99706.47;5052570;28;20466;-52
2023/07/01 00:46:16;;;;;;;0.40;0.20;;;;;;;13.33;86.23;99703.38;5055142;28;20471;-52
2023/07/01 00:48:43;;;;;;;0.40;0.20;;;;;;;13.38;86.26;99704.94;5054711;28;20490;-52
2023/07/01 00:51:10;;;;;;;0.40;0.20;;;;;;;13.22;86.58;99700.38;5036785;28;20951;-51
2023/07/01 00:53:39;;;;;;;0.40;0.20;;;;;;;13.08;87.25;99692.13;5054618;28;20471;-51
2023/07/01 00:56:06;;;;;;;0.40;0.20;;;;;;;13.00;87.67;99694.28;5054728;28;20501;-52
2023/07/01 00:58:34;;;;;;;0.40;0.20;;;;;;;12.88;88.37;99692.22;5054721;28;20490;-51
2023/07/01 01:01:05;;;;;;;0.40;0.20;;;;;;;13.09;88.47;99696.53;5054671;28;20856;-52
2023/07/01 01:03:43;;;;;;;0.40;0.20;;;;;;;13.13;88.26;99690.09;5054561;28;20462;-51
2023/07/01 01:06:33;;;;;;;0.40;0.20;;;;;;;13.19;88.22;99688.97;5054549;28;20867;-51
2023/07/01 01:09:10;;;;;;;0.40;0.20;;;;;;;12.94;89.93;99682.13;5054529;28;20742;-53
2023/07/01 01:11:41;;;;;;;0.40;0.20;;;;;;;13.20;88.51;99686.22;5054580;28;20462;-53
2023/07/01 01:14:11;;;;;;;0.40;0.20;;;;;;;13.22;88.64;99680.81;5054634;28;20528;-51
2023/07/01 01:16:39;;;;;;;0.40;0.20;;;;;;;13.40;88.47;99687.03;5035113;28;21039;-51
2023/07/01 01:19:20;;;;;;;0.40;0.20;;;;;;;13.24;88.24;99679.78;5054481;28;20915;-51
2023/07/01 01:22:12;;;;;;;0.40;0.20;;;;;;;13.13;89.00;99686.56;5054311;28;20500;-51
2023/07/01 01:24:42;;;;;;;0.40;0.20;;;;;;;13.13;88.99;99679.41;5053010;28;21016;-51
2023/07/01 01:27:12;;;;;;;0.40;0.20;;;;;;;12.94;90.16;99670.59;5054117;28;20473;-51
2023/07/01 01:29:39;;;;;;;0.40;0.20;;;;;;;13.12;89.47;99669.69;5054237;28;20482;-51
2023/07/01 01:32:07;;;;;;;0.40;0.20;;;;;;;13.27;89.00;99668.97;5054034;28;20463;-51
2023/07/01 01:34:34;;;;;;;0.40;0.20;;;;;;;13.44;88.54;99678.81;5053846;28;20473;-51
2023/07/01 01:37:05;;;;;;;0.40;0.20;;;;;;;13.42;88.40;99675.34;5053621;28;20499;-51
2023/07/01 01:39:38;;;;;;;0.40;0.20;;;;;;;13.60;88.09;99670.91;5053667;28;20491;-51
2023/07/01 01:42:14;;;;;;;0.40;0.20;;;;;;;13.80;87.64;99668.06;5054036;28;20530;-51
2023/07/01 01:44:47;;;;;;;0.40;0.20;;;;;;;13.84;86.82;99675.00;5053944;28;20468;-51
2023/07/01 01:47:18;;;;;;;0.40;0.20;;;;;;;14.10;86.15;99675.41;5053754;28;20459;-50
2023/07/01 01:49:48;;;;;;;0.40;0.20;;;;;;;14.20;85.87;99671.31;5053586;28;21021;-51
2023/07/01 01:52:16;;;;;;;0.40;0.20;;;;;;;14.10;85.86;99668.25;5049475;28;20536;-51
2023/07/01 01:54:47;;;;;;;0.57;0.57;;;;;;;14.14;86.32;99667.16;5053414;28;20472;-51
2023/07/01 01:57:15;;;;;;;0.40;0.20;;;;;;;14.09;86.42;99660.31;5053753;28;20967;-51
2023/07/01 01:59:43;;;;;;;0.40;0.20;;;;;;;13.83;88.00;99667.03;5053506;28;20856;-51
2023/07/01 02:02:10;;;;;;;0.40;0.20;;;;;;;13.75;88.75;99661.22;5053462;28;20522;-51
2023/07/01 02:04:37;;;;;;;0.40;0.20;;;;;;;13.67;89.19;99658.94;5053302;28;20493;-50
2023/07/01 02:07:04;;;;;;;0.40;0.20;;;;;;;13.63;89.04;99652.91;5053413;28;20993;-51
2023/07/01 02:09:30;;;;;;;0.40;0.20;;;;;;;13.64;89.16;99645.75;5035354;28;20922;-51
2023/07/01 02:11:57;;;;;;;0.40;0.20;;;;;;;13.53;89.99;99651.63;5053550;28;20462;-51
2023/07/01 02:14:24;;;;;;;0.40;0.20;;;;;;;13.69;89.45;99654.38;5053291;28;20463;-51
2023/07/01 02:16:50;;;;;;;0.40;0.20;;;;;;;13.54;89.85;99652.50;5053326;28;20536;-51
2023/07/01 02:19:18;;;;;;;0.40;0.20;;;;;;;13.56;90.41;99646.13;5052939;28;20491;-51
2023/07/01 02:21:44;;;;;;;0.40;0.20;;;;;;;13.66;89.68;99651.00;5050335;28;20580;-51
2023/07/01 02:24:11;;;;;;;0.40;0.20;;;;;;;13.74;89.99;99654.16;5049488;28;20528;-51
2023/07/01 02:26:37;;;;;;;0.40;0.20;;;;;;;13.89;89.70;99640.88;5053066;28;20458;-50
2023/07/01 02:29:03;;;;;;;0.40;0.20;;;;;;;13.88;89.85;99644.47;5052834;28;20521;-51
2023/07/01 02:31:30;;;;;;;0.40;0.20;;;;;;;13.94;88.88;99638.81;5052870;28;20600;-51
2023/07/01 02:34:00;;;;;;;0.40;0.20;;;;;;;14.06;88.59;99641.78;5052562;28;20844;-51
2023/07/01 02:36:27;;;;;;;0.40;0.20;;;;;;;14.25;87.71;99637.16;5052877;28;20467;-51
2023/07/01 02:38:53;;;;;;;0.40;0.20;;;;;;;14.32;86.46;99641.25;5052452;28;21001;-51
2023/07/01 02:41:20;;;;;;;0.40;0.20;;;;;;;14.50;86.24;99642.06;5052801;28;20490;-51
2023/07/01 02:43:47;;;;;;;0.40;0.20;;;;;;;14.52;86.69;99642.84;5052621;28;20463;-51
2023/07/01 02:46:13;;;;;;;0.40;0.20;;;;;;;14.43;87.42;99638.84;5052661;28;20474;-51
2023/07/01 02:48:40;;;;;;;0.40;0.20;;;;;;;14.41;88.34;99638.06;5052157;28;20558;-50
2023/07/01 02:51:07;;;;;;;0.40;0.20;;;;;;;14.45;88.58;99636.97;5052857;28;21022;-51
2023/07/01 02:53:33;;;;;;;0.40;0.20;;;;;;;14.39;89.23;99639.06;5052497;28;20532;-51
2023/07/01 02:56:02;;;;;;;0.40;0.20;;;;;;;14.52;88.60;99633.00;5052617;28;20479;-51
2023/07/01 02:58:28;;;;;;;0.40;0.20;;;;;;;14.60;88.23;99631.72;5052633;28;20955;-51
2023/07/01 03:00:55;;;;;;;0.40;0.20;;;;;;;14.70;88.20;99632.94;5052351;28;20843;-51
2023/07/01 03:03:21;;;;;;;0.40;0.20;;;;;;;14.66;88.76;99623.34;5052611;28;20528;-51
2023/07/01 03:05:48;;;;;;;0.40;0.20;;;;;;;14.62;89.43;99619.13;5052639;28;20529;-51
2023/07/01 03:08:14;;;;;;;0.40;0.20;;;;;;;14.71;90.08;99623.97;5052509;28;20803;-51
2023/07/01 03:10:41;;;;;;;0.40;0.20;;;;;;;14.72;90.43;99620.34;5052452;28;20545;-51
2023/07/01 03:13:07;;;;;;;0.50;0.50;;;;;;;14.88;89.71;99615.00;5052344;28;20520;-51
2023/07/01 03:15:34;;;;;;;0.40;0.20;;;;;;;14.92;88.65;99609.38;5052109;28;20470;-51
2023/07/01 03:18:00;;;;;;;0.40;0.20;;;;;;;14.97;89.02;99623.38;5052572;28;20950;-51
2023/07/01 03:20:28;;;;;;;0.40;0.20;;;;;;;15.01;89.26;99618.69;5051936;28;21018;-51
2023/07/01 03:22:56;;;;;;;0.40;0.20;;;;;;;14.94;89.04;99606.59;5051964;28;20986;-51
2023/07/01 03:25:24;;;;;;;0.40;0.20;;;;;;;14.88;90.43;99612.31;5052360;28;20999;-52
2023/07/01 03:27:51;;;;;;;0.40;0.20;;;;;;;14.89;90.53;99612.22;5050943;28;20524;-51
2023/07/01 03:30:18;;;;;;;0.40;0.20;;;;;;;14.94;90.41;99610.16;5052033;28;20483;-51
2023/07/01 03:32:46;;;;;;;0.40;0.20;;;;;;;15.04;89.89;99615.81;5052111;28;20458;-52
2023/07/01 03:35:15;;;;;;;0.40;0.20;;;;;;;15.08;89.93;99595.97;5051857;28;20477;-51
2023/07/01 03:37:43;;;;;;;0.40;0.20;;;;;;;15.17;89.79;99598.09;5051051;28;20465;-51
2023/07/01 03:40:13;;;;;;;0.40;0.20;;;;;;;15.18;89.52;99601.63;5065602;23;20510;-49
2023/07/01 03:42:40;;;;;;;0.40;0.20;;;;;;;15.13;89.97;99587.66;5051645;28;20620;-50
2023/07/01 03:45:08;;;;;;;0.40;0.20;;;;;;;15.15;89.46;99588.44;5052114;28;20546;-49
2023/07/01 03:47:36;;;;;;;0.40;0.20;;;;;;;15.19;86.94;99598.00;5046098;28;20565;-49
2023/07/01 03:50:03;;;;;;;0.40;0.20;;;;;;;15.24;86.63;99599.47;5051722;28;20486;-50
2023/07/01 03:52:30;;;;;;;0.40;0.20;;;;;;;15.28;88.43;99584.94;5051633;28;20495;-50
2023/07/01 03:54:56;;;;;;;0.40;0.20;;;;;;;15.30;86.58;99593.75;5051986;28;20577;-49
2023/07/01 03:57:23;;;;;;;0.40;0.20;;;;;;;15.35;86.14;99596.16;5051889;28;20963;-49
2023/07/01 03:59:49;;;;;;;0.40;0.20;;;;;;;15.45;85.89;99600.00;5051988;28;20483;-49
2023/07/01 04:02:16;;;;;;;0.40;0.20;;;;;;;15.27;86.32;99595.75;5055916;28;20579;-49
2023/07/01 04:04:42;;;;;;;0.40;0.20;;;;;;;15.51;85.36;99593.44;5055590;28;21006;-48
2023/07/01 04:07:09;;;;;;;0.40;0.20;;;;;;;15.46;85.31;99593.69;5055747;28;20568;-49
2023/07/01 04:09:35;;;;;;;0.40;0.20;;;;;;;15.57;84.49;99599.28;5055380;28;20514;-49
2023/07/01 04:12:02;;;;;;;0.40;0.20;;;;;;;15.49;84.87;99601.56;5055748;28;20951;-49
2023/07/01 04:14:29;;;;;;;0.40;0.20;;;;;;;15.46;84.54;99601.72;5055537;28;20550;-49
2023/07/01 04:16:55;;;;;;;0.40;0.20;;;;;;;15.54;85.76;99595.94;5055519;28;21042;-49
2023/07/01 04:19:22;;;;;;;0.40;0.20;;;;;;;15.55;85.56;99597.66;5055680;28;20487;-49
2023/07/01 04:21:49;;;;;;;0.40;0.20;;;;;;;15.60;85.08;99593.75;5047293;28;20502;-49
2023/07/01 04:24:15;;;;;;;0.40;0.20;;;;;;;15.68;85.16;99594.19;5055242;28;20498;-50
2023/07/01 04:26:45;;;;;;;0.40;0.20;;;;;;;15.70;84.79;99594.06;5055461;28;20466;-50
2023/07/01 04:29:12;;;;;;;0.40;0.20;;;;;;;15.78;84.73;99597.16;5055392;28;20482;-49
2023/07/01 04:31:39;;;;;;;0.40;0.20;;;;;;;15.90;83.80;99598.22;5055097;28;20458;-49
2023/07/01 04:34:06;;;;;;;0.40;0.20;;;;;;;16.28;82.52;99596.69;5055070;28;20466;-49
2023/07/01 04:36:32;;;;;;;0.40;0.20;;;;;;;16.40;82.49;99594.19;5055030;28;20476;-49
2023/07/01 04:38:58;;;;;;;0.40;0.20;;;;;;;16.14;82.63;99595.81;5054793;28;20518;-50
2023/07/01 04:41:25;;;;;;;0.40;0.20;;;;;;;16.06;83.17;99587.41;5054824;28;20577;-49
2023/07/01 04:43:51;;;;;;;0.40;0.20;;;;;;;16.04;84.11;99586.66;5055079;28;20469;-50
2023/07/01 04:46:18;;;;;;;0.40;0.20;;;;;;;16.03;84.28;99577.72;5055046;28;20471;-49
2023/07/01 04:48:44;;;;;;;0.40;0.20;;;;;;;16.13;83.82;99576.19;5054699;28;20473;-50
2023/07/01 04:51:11;;;;;;;0.40;0.20;;;;;;;16.28;82.68;99572.53;5054904;28;20462;-49
2023/07/01 04:53:38;;;;;;;0.40;0.20;;;;;;;16.41;82.23;99577.13;5054694;28;20524;-50
2023/07/01 04:56:06;;;;;;;0.40;0.20;;;;;;;16.42;82.24;99581.53;5054858;28;21001;-49
2023/07/01 04:58:32;;;;;;;0.40;0.20;;;;;;;16.31;81.87;99571.50;5054559;28;20922;-49
2023/07/01 05:00:59;;;;;;;0.40;0.20;;;;;;;16.38;81.52;99574.66;5054606;28;20478;-49
2023/07/01 05:03:25;;;;;;;0.40;0.20;;;;;;;16.43;81.19;99576.06;5054494;28;20494;-50
2023/07/01 05:05:52;;;;;;;0.40;0.20;;;;;;;16.68;81.41;99571.84;5054579;28;20473;-50
2023/07/01 05:08:18;;;;;;;0.40;0.20;;;;;;;16.94;80.98;99575.50;5052055;28;20578;-49
2023/07/01 05:10:45;;;;;;;0.40;0.20;;;;;;;17.42;79.92;99569.53;5018035;28;20492;-50
2023/07/01 05:13:12;;;;;;;0.40;0.20;;;;;;;17.94;78.30;99571.28;5052489;28;20495;-50
2023/07/01 05:15:39;;;;;;;0.40;0.20;;;;;;;18.96;74.22;99572.94;5053225;28;20947;-49
2023/07/01 05:18:07;;;;;;;0.40;0.20;;;;;;;18.99;70.97;99568.16;5054316;28;20993;-49
2023/07/01 05:20:33;;;;;;;0.50;0.20;;;;;;;19.08;69.77;99577.41;5053143;28;20489;-50
2023/07/01 05:23:00;;;;;;;0.50;0.20;;;;;;;19.01;67.63;99562.66;5049729;28;20523;-50
2023/07/01 05:25:26;;;;;;;0.50;0.20;;;;;;;18.93;67.70;99564.13;5054290;28;20474;-49
2023/07/01 05:27:53;;;;;;;0.50;0.20;;;;;;;19.09;68.01;99565.66;5046580;28;20975;-49
2023/07/01 05:30:20;;;;;;;0.50;0.20;;;;;;;18.96;69.79;99554.94;5054389;28;20487;-50
2023/07/01 05:32:47;;;;;;;0.40;0.20;;;;;;;18.81;70.11;99556.09;5054079;28;20462;-50
2023/07/01 05:35:14;;;;;;;0.50;0.20;;;;;;;18.90;70.28;99547.31;5053752;28;20490;-49
2023/07/01 05:37:41;;;;;;;0.40;0.20;;;;;;;18.84;70.13;99559.41;5054165;28;20494;-49
2023/07/01 05:40:08;;;;;;;0.50;0.20;;;;;;;18.87;70.44;99555.63;5054071;28;20597;-50
2023/07/01 05:42:34;;;;;;;0.40;0.20;;;;;;;18.85;70.59;99560.25;5053958;28;20541;-49
2023/07/01 05:45:01;;;;;;;0.50;0.20;;;;;;;19.28;69.62;99555.19;5054312;28;20520;-49
2023/07/01 05:47:27;;;;;;;6.13;2.83;;;;;;;19.50;69.27;99549.88;5053872;28;20489;-49
2023/07/01 05:49:54;;;;;;;0.50;0.20;;;;;;;19.71;66.40;99551.91;5054068;28;20487;-49
2023/07/01 05:52:21;;;;;;;0.50;0.20;;;;;;;19.38;66.92;99558.03;5053798;28;20494;-49
2023/07/01 05:54:47;;;;;;;0.40;0.20;;;;;;;19.51;66.00;99551.59;5053905;28;20463;-49
2023/07/01 05:57:14;;;;;;;0.50;0.20;;;;;;;19.50;66.32;99551.72;5054088;28;20886;-50
2023/07/01 05:59:40;;;;;;;0.40;0.20;;;;;;;19.38;65.88;99544.56;5053862;28;20486;-49
2023/07/01 06:02:07;;;;;;;0.40;0.20;;;;;;;19.37;66.04;99542.84;5053765;28;20581;-49
2023/07/01 06:04:34;;;;;;;0.50;0.20;;;;;;;19.67;65.90;99547.72;5053585;28;20470;-50
2023/07/01 06:07:00;;;;;;;0.43;0.20;;;;;;;19.76;64.88;99550.59;5053905;28;20561;-49
2023/07/01 06:09:26;;;;;;;0.50;0.20;;;;;;;19.96;64.52;99554.38;5035630;28;20544;-50
2023/07/01 06:11:53;;;;;;;0.50;0.20;;;;;;;20.32;63.81;99552.44;5053564;28;20462;-50
2023/07/01 06:14:19;;;;;;;0.50;0.20;;;;;;;20.74;62.53;99549.97;5053391;28;20466;-50
2023/07/01 06:16:46;;;;;;;0.50;0.20;;;;;;;20.64;61.70;99548.00;5053382;28;20471;-50
2023/07/01 06:19:12;;;;;;;0.50;0.20;;;;;;;20.87;59.97;99546.13;5053961;28;20490;-50
2023/07/01 06:21:39;;;;;;;0.50;0.20;;;;;;;20.57;61.50;99543.25;5053218;28;20883;-49
2023/07/01 06:24:05;;;;;;;0.50;0.20;;;;;;;20.41;61.85;99549.88;5052135;28;20462;-50
2023/07/01 06:26:32;;;;;;;0.50;0.20;;;;;;;20.70;60.90;99543.97;5053125;28;20462;-50
2023/07/01 06:28:58;;;;;;;0.50;0.20;;;;;;;20.61;61.50;99548.25;5052844;28;20467;-49
2023/07/01 06:31:25;;;;;;;4.30;2.57;;;;;;;21.23;59.94;99544.84;5052451;28;20971;-50
2023/07/01 06:33:52;;;;;;;0.40;0.20;;;;;;;21.15;59.81;99543.81;5052978;28;20520;-49
2023/07/01 06:36:19;;;;;;;0.50;0.20;;;;;;;21.08;59.47;99539.88;5053196;28;20573;-49
2023/07/01 06:38:48;;;;;;;0.50;0.20;;;;;;;21.21;59.91;99538.72;5036279;28;20467;-50
2023/07/01 06:41:15;;;;;;;0.50;0.20;;;;;;;21.22;59.31;99544.97;5053144;28;20481;-49
2023/07/01 06:43:41;;;;;;;0.50;0.20;;;;;;;21.74;58.98;99536.00;5052624;28;20494;-50
2023/07/01 06:46:14;;;;;;;0.50;0.20;;;;;;;21.81;57.22;99536.34;5089972;28;20557;-49
2023/07/01 06:48:42;;;;;;;0.50;0.20;;;;;;;22.13;57.56;99528.97;5089651;28;20487;-50
2023/07/01 06:51:09;;;;;;;0.50;0.20;;;;;;;22.00;58.57;99533.72;5089728;28;20537;-50
2023/07/01 06:53:39;;;;;;;0.50;0.20;;;;;;;22.57;56.19;99521.41;5089547;28;20470;-51
2023/07/01 06:56:09;;;;;;;0.50;0.30;;;;;;;22.84;55.68;99523.50;5089661;28;20896;-50
2023/07/01 06:58:36;;;;;;;0.50;0.20;;;;;;;22.55;56.20;99525.25;5090569;28;20872;-52
2023/07/01 07:01:03;;;;;;;1.40;1.40;;;;;;;22.28;57.30;99537.59;5090395;28;20853;-52
2023/07/01 07:03:30;;;;;;;0.50;0.20;;;;;;;22.31;58.16;99531.88;5089844;28;20464;-52
2023/07/01 07:05:56;;;;;;;0.50;0.20;;;;;;;22.21;57.73;99532.88;5089890;28;20573;-52
2023/07/01 07:08:23;;;;;;;0.50;0.20;;;;;;;21.98;58.58;99530.28;5089732;28;20471;-51
2023/07/01 07:10:49;;;;;;;0.50;0.20;;;;;;;21.92;59.15;99520.00;5082999;28;20943;-51
2023/07/01 07:13:17;;;;;;;0.83;0.83;;;;;;;22.08;58.54;99519.56;5090061;28;20518;-51
2023/07/01 07:15:44;;;;;;;0.50;0.20;;;;;;;22.09;59.21;99519.41;5090704;28;20489;-52
2023/07/01 07:18:11;;;;;;;0.50;0.20;;;;;;;22.11;58.78;99517.44;5078738;28;20465;-52
2023/07/01 07:20:38;;;;;;;0.50;0.20;;;;;;;22.06;59.45;99511.53;5090999;28;20488;-52
2023/07/01 07:23:08;;;;;;;0.50;0.20;;;;;;;22.10;59.45;99510.31;5090584;28;20976;-52
2023/07/01 07:25:35;;;;;;;0.50;0.20;;;;;;;22.55;58.87;99503.59;5090339;28;20583;-52
2023/07/01 07:28:03;;;;;;;0.50;0.20;;;;;;;22.35;59.03;99505.41;5091271;28;20492;-52
2023/07/01 07:30:30;;;;;;;0.50;0.20;;;;;;;22.56;57.88;99511.56;5090089;28;20534;-52
2023/07/01 07:32:56;;;;;;;0.50;0.20;;;;;;;22.36;58.24;99509.81;5086715;28;21068;-52
2023/07/01 07:35:23;;;;;;;0.50;0.20;;;;;;;22.25;59.50;99507.22;5092157;28;20548;-52
2023/07/01 07:37:50;;;;;;;0.50;0.37;;;;;;;22.85;57.47;99508.94;5084755;28;20644;-52
2023/07/01 07:40:16;;;;;;;0.50;0.20;;;;;;;22.82;58.03;99508.34;5092404;28;20988;-52
2023/07/01 07:42:43;;;;;;;3.07;0.77;;;;;;;22.92;57.69;99506.53;5092929;28;21287;-52
2023/07/01 07:45:10;;;;;;;0.50;0.20;;;;;;;22.77;57.08;99506.06;5092874;28;20488;-52
2023/07/01 07:47:36;;;;;;;0.50;0.30;;;;;;;22.70;58.72;99504.91;5090608;28;20464;-51
2023/07/01 07:50:03;;;;;;;0.80;0.80;;;;;;;22.64;58.45;99500.06;5090470;28;20489;-52
2023/07/01 07:52:30;;;;;;;0.50;0.20;;;;;;;22.55;58.83;99507.16;5089967;28;20836;-52
2023/07/01 07:54:56;;;;;;;0.50;0.20;;;;;;;22.64;59.00;99500.06;5091211;28;20468;-52
2023/07/01 07:57:23;;;;;;;0.50;0.20;;;;;;;22.37;58.62;99506.13;5078342;28;20461;-52
2023/07/01 07:59:49;;;;;;;2.10;2.00;;;;;;;22.08;60.05;99501.47;5073212;28;20576;-52
2023/07/01 08:02:16;;;;;;;0.50;0.20;;;;;;;22.00;61.01;99493.13;5076495;28;20465;-52
2023/07/01 08:04:42;;;;;;;0.50;0.20;;;;;;;22.05;61.24;99488.19;5076242;28;20499;-52
2023/07/01 08:07:10;;;;;;;0.50;0.20;;;;;;;22.00;61.42;99492.28;5077728;28;20472;-52
2023/07/01 08:09:37;;;;;;;0.50;0.23;;;;;;;21.89;61.70;99491.34;5077983;28;20486;-53
2023/07/01 08:12:04;;;;;;;0.50;0.30;;;;;;;21.88;61.80;99486.94;5077081;28;20521;-52
2023/07/01 08:14:31;;;;;;;0.50;0.30;;;;;;;21.86;61.75;99493.47;5075491;28;20834;-52
2023/07/01 08:17:00;;;;;;;0.50;0.20;;;;;;;21.91;62.35;99496.63;5076115;28;20705;-52
2023/07/01 08:19:27;;;;;;;0.50;0.30;;;;;;;21.98;61.71;99492.41;5075810;28;20960;-52
2023/07/01 08:21:54;;;;;;;0.50;0.20;;;;;;;21.94;61.92;99484.72;5075634;28;20469;-51
2023/07/01 08:24:25;;;;;;;0.50;0.20;;;;;;;22.26;61.06;99484.56;5075678;28;20458;-52
2023/07/01 08:26:51;;;;;;;0.50;0.20;;;;;;;21.85;62.51;99489.06;5076055;28;20964;-52
2023/07/01 08:29:19;;;;;;;0.50;0.20;;;;;;;21.92;62.68;99482.09;5074740;28;20582;-51
2023/07/01 08:31:46;;;;;;;0.47;0.20;;;;;;;21.83;63.31;99489.22;5071578;28;20462;-52
2023/07/01 08:34:12;;;;;;;0.50;0.20;;;;;;;21.52;64.36;99491.03;5073768;28;20461;-52
2023/07/01 08:36:39;;;;;;;0.50;0.20;;;;;;;21.82;63.76;99489.34;5073570;28;20457;-51
2023/07/01 08:39:05;;;;;;;0.50;0.20;;;;;;;21.80;64.31;99486.78;5073910;28;20552;-52
2023/07/01 08:41:40;;;;;;;0.50;0.20;;;;;;;22.19;63.97;99486.94;5073716;28;20493;-52
2023/07/01 08:44:10;;;;;;;0.50;0.20;;;;;;;22.37;63.47;99474.47;5073592;28;21369;-51
2023/07/01 08:46:39;;;;;;;0.50;0.20;;;;;;;22.27;62.79;99479.00;5073352;28;20493;-52
2023/07/01 08:49:06;;;;;;;0.50;0.20;;;;;;;22.40;62.42;99482.31;5074165;28;20497;-52
2023/07/01 08:51:40;;;;;;;0.73;0.73;;;;;;;22.25;63.49;99481.00;5073735;28;20477;-52
2023/07/01 08:54:09;;;;;;;0.50;0.20;;;;;;;22.22;62.93;99472.31;5073600;28;21016;-52
2023/07/01 08:56:36;;;;;;;0.40;0.20;;;;;;;22.32;62.94;99475.88;5073688;28;20462;-52
2023/07/01 08:59:04;;;;;;;0.50;0.20;;;;;;;22.30;63.02;99476.00;5073989;28;20527;-52
2023/07/01 09:01:32;;;;;;;0.50;0.20;;;;;;;22.39;64.56;99483.31;5073128;28;20472;-52
2023/07/01 09:04:00;;;;;;;0.50;0.20;;;;;;;22.13;64.05;99477.53;5073706;28;20469;-51
2023/07/01 09:06:27;;;;;;;0.47;0.20;;;;;;;22.18;64.46;99480.69;5073167;28;20654;-51
2023/07/01 09:08:54;;;;;;;0.50;0.30;;;;;;;22.15;64.51;99485.50;5072401;28;20473;-51
2023/07/01 09:11:20;;;;;;;0.50;0.20;;;;;;;22.21;65.07;99482.28;5073241;28;20552;-52
2023/07/01 09:13:54;;;;;;;0.50;0.20;;;;;;;21.96;65.57;99478.16;5073060;28;20538;-51
2023/07/01 09:16:34;;;;;;;0.50;0.20;;;;;;;21.93;66.51;99481.16;5073268;28;20496;-52
2023/07/01 09:19:10;;;;;;;0.50;0.20;;;;;;;21.58;68.21;99476.13;5073335;28;20477;-51
2023/07/01 09:21:38;;;;;;;0.50;0.20;;;;;;;21.67;67.77;99477.16;5073389;28;20485;-52
2023/07/01 09:24:06;;;;;;;0.50;0.20;;;;;;;21.65;68.05;99473.72;5071879;28;20568;-52
2023/07/01 09:26:33;;;;;;;0.50;0.20;;;;;;;21.88;67.89;99475.25;5063231;28;21032;-52
2023/07/01 09:29:08;;;;;;;0.43;0.20;;;;;;;21.69;68.09;99470.63;5072482;28;20482;-52
2023/07/01 09:31:48;;;;;;;0.50;0.20;;;;;;;21.74;67.58;99464.81;5072770;28;20500;-51
2023/07/01 09:34:16;;;;;;;0.40;0.20;;;;;;;21.52;68.02;99469.41;5068685;28;21020;-52
2023/07/01 09:36:44;;;;;;;0.50;0.20;;;;;;;21.65;69.37;99462.91;5072460;28;20831;-51
2023/07/01 09:39:10;;;;;;;0.50;0.20;;;;;;;21.27;71.32;99476.06;5072684;28;21083;-52
2023/07/01 09:41:37;;;;;;;0.50;0.20;;;;;;;21.37;73.47;99462.59;5072696;28;20466;-52
2023/07/01 09:44:14;;;;;;;0.50;0.20;;;;;;;21.43;73.41;99463.94;5072714;28;20512;-52
2023/07/01 09:46:46;;;;;;;3.47;3.27;;;;;;;21.49;71.88;99472.34;5072420;28;20489;-52
2023/07/01 09:49:13;;;;;;;0.50;0.20;;;;;;;21.38;72.07;99461.63;5072768;28;20509;-51
2023/07/01 09:51:50;;;;;;;0.40;0.20;;;;;;;21.65;75.76;99469.16;5072214;28;20469;-51
2023/07/01 09:54:25;;;;;;;0.40;0.20;;;;;;;21.49;76.05;99458.81;5072663;28;20518;-52
2023/07/01 09:56:53;;;;;;;0.50;0.20;;;;;;;21.40;74.49;99459.66;5072542;28;20548;-52
2023/07/01 09:59:20;;;;;;;0.43;0.20;;;;;;;21.21;76.49;99462.16;5072301;28;20489;-51
2023/07/01 10:01:50;;;;;;;0.40;0.20;;;;;;;21.25;77.57;99461.84;5072033;28;20546;-52
2023/07/01 10:04:21;;;;;;;0.43;0.20;;;;;;;21.10;80.63;99456.81;5072481;28;20465;-52
2023/07/01 10:06:54;;;;;;;0.40;0.20;;;;;;;20.94;81.09;99460.84;5064601;28;20493;-51
2023/07/01 10:09:23;;;;;;;0.50;0.20;;;;;;;20.91;80.54;99463.81;5072317;28;20521;-51
2023/07/01 10:11:54;;;;;;;0.40;0.20;;;;;;;20.82;80.47;99463.72;5072245;28;20469;-51
2023/07/01 10:14:22;;;;;;;0.50;0.20;;;;;;;20.90;80.14;99451.28;5071972;28;20493;-51
2023/07/01 10:16:49;;;;;;;0.40;0.20;;;;;;;20.95;80.97;99457.13;5072191;28;21012;-52
2023/07/01 10:19:31;;;;;;;0.50;0.20;;;;;;;20.91;80.48;99453.00;5071842;28;20486;-51
2023/07/01 10:22:23;;;;;;;0.50;0.20;;;;;;;20.92;80.28;99464.66;5072538;28;20560;-52
2023/07/01 10:25:04;;;;;;;0.50;0.20;;;;;;;21.04;79.96;99460.91;5060283;28;20493;-51
2023/07/01 10:27:39;;;;;;;0.50;0.20;;;;;;;21.13;77.72;99457.44;5072025;28;20462;-52
2023/07/01 10:30:08;;;;;;;0.50;0.20;;;;;;;21.05;79.18;99457.22;5072392;28;20564;-51
2023/07/01 10:32:37;;;;;;;0.50;0.20;;;;;;;21.29;76.29;99449.75;5065641;28;20449;-52
2023/07/01 10:35:03;;;;;;;0.50;0.20;;;;;;;20.92;77.32;99452.00;5070362;28;20967;-51
2023/07/01 10:37:32;;;;;;;0.47;0.20;;;;;;;21.11;76.22;99451.31;5072130;28;20504;-52
2023/07/01 10:40:22;;;;;;;0.50;0.20;;;;;;;21.16;76.85;99451.75;5072178;28;20576;-52
2023/07/01 10:42:49;;;;;;;0.50;0.20;;;;;;;21.56;76.02;99453.75;5061371;28;20493;-52
2023/07/01 10:45:35;;;;;;;0.50;0.20;;;;;;;21.80;74.62;99454.31;5071636;28;20519;-51
2023/07/01 10:48:01;;;;;;;0.50;0.20;;;;;;;21.59;75.33;99450.78;5071862;28;20950;-52
2023/07/01 10:50:28;;;;;;;0.50;0.20;;;;;;;21.42;75.83;99456.81;5071997;28;20853;-52
2023/07/01 10:52:55;;;;;;;0.40;0.20;;;;;;;21.32;76.54;99448.63;5071859;28;20504;-52
2023/07/01 10:55:43;;;;;;;0.40;0.20;;;;;;;21.33;77.25;99450.34;5071763;28;20458;-52
2023/07/01 10:58:26;;;;;;;0.50;0.20;;;;;;;21.66;75.35;99449.25;5071753;28;20472;-51
2023/07/01 11:00:57;;;;;;;0.40;0.20;;;;;;;21.40;75.91;99434.47;5071828;28;20482;-52
2023/07/01 11:03:32;;;;;;;0.40;0.20;;;;;;;21.51;74.85;99434.34;5071552;28;20473;-52
2023/07/01 11:06:00;;;;;;;0.40;0.20;;;;;;;21.24;75.28;99424.06;5071723;28;20493;-52
2023/07/01 11:08:27;;;;;;;0.40;0.20;;;;;;;21.51;75.04;99440.63;5071161;28;20548;-51
2023/07/01 11:10:54;;;;;;;0.40;0.20;;;;;;;21.49;75.16;99433.63;5071500;28;20485;-51
2023/07/01 11:13:21;;;;;;;0.40;0.20;;;;;;;21.64;74.98;99428.72;5059398;28;20489;-51
2023/07/01 11:16:02;;;;;;;0.40;0.20;;;;;;;21.60;74.63;99428.13;5071233;28;20955;-50
2023/07/01 11:18:50;;;;;;;0.40;0.20;;;;;;;21.49;74.81;99430.94;5071813;28;20465;-51
2023/07/01 11:21:25;;;;;;;0.40;0.20;;;;;;;21.42;74.97;99427.06;5071771;28;20469;-51
2023/07/01 11:23:58;;;;;;;0.40;0.20;;;;;;;21.66;74.60;99427.63;5071977;28;20507;-52
2023/07/01 11:26:30;;;;;;;0.40;0.20;;;;;;;21.64;74.99;99415.19;5067994;28;20576;-51
2023/07/01 11:28:56;;;;;;;0.50;0.20;;;;;;;21.72;73.79;99420.78;5071431;28;20462;-51
2023/07/01 11:31:25;;;;;;;0.50;0.20;;;;;;;21.63;74.56;99418.91;5071888;28;20513;-51
2023/07/01 11:33:54;;;;;;;0.50;0.30;;;;;;;21.73;74.25;99422.50;5070542;28;20465;-51
2023/07/01 11:36:44;;;;;;;0.40;0.20;;;;;;;21.86;73.79;99405.03;5075598;28;20457;-51
2023/07/01 11:39:15;;;;;;;0.50;0.20;;;;;;;21.57;73.95;99407.63;5076570;28;20478;-51
2023/07/01 11:41:48;;;;;;;0.50;0.20;;;;;;;21.89;73.60;99404.75;5075772;28;20950;-52